Time;durP1;ratioP1;P1;durP2;ratioP2;P2;SDS_P1;SDS_P2;PMS_P1;PMS_P2;Temp;Humidity;BMP_temperature;BMP_pressure;BME280_temperature;BME280_humidity;BME280_pressure;Samples;Min_cycle;Max_cycle;Signal;HPM_P1;HPM_P2
2020/12/20 00:01:16;;;;;;;12.20;8.23;;;;;;;;;;5013052;28;20292;-77
2020/12/20 00:03:42;;;;;;;11.67;6.23;;;;;;;;;;5016070;28;20350;-77
2020/12/20 00:06:08;;;;;;;12.07;7.80;;;;;;;;;;5022702;28;20265;-77
2020/12/20 00:08:34;;;;;;;13.83;8.67;;;;;;;;;;5014623;28;20283;-77
2020/12/20 00:11:00;;;;;;;12.53;7.17;;;;;;;;;;5011982;28;20312;-77
2020/12/20 00:13:27;;;;;;;12.67;8.30;;;;;;;;;;5003361;28;20345;-77
2020/12/20 00:15:53;;;;;;;11.77;7.37;;;;;;;;;;5045149;28;20284;-76
2020/12/20 00:18:19;;;;;;;13.50;8.30;;;;;;;;;;5033011;28;20284;-77
2020/12/20 00:20:45;;;;;;;12.40;8.73;;;;;;;;;;5029319;28;20347;-76
2020/12/20 00:23:12;;;;;;;11.50;7.40;;;;;;;;;;5016983;28;20277;-77
2020/12/20 00:25:38;;;;;;;11.70;7.90;;;;;;;;;;5024745;28;20273;-77
2020/12/20 00:28:04;;;;;;;12.20;7.87;;;;;;;;;;5028951;28;20265;-76
2020/12/20 00:30:30;;;;;;;12.80;7.83;;;;;;;;;;5012147;28;20407;-76
2020/12/20 00:32:56;;;;;;;11.63;7.07;;;;;;;;;;5009053;28;20289;-77
2020/12/20 00:35:22;;;;;;;13.77;7.93;;;;;;;;;;5026004;28;20261;-77
2020/12/20 00:37:50;;;;;;;12.93;7.80;;;;;;;;;;4994776;28;20273;-77
2020/12/20 00:40:16;;;;;;;11.97;7.27;;;;;;;;;;4995948;28;20304;-77
2020/12/20 00:42:42;;;;;;;13.80;8.77;;;;;;;;;;5013025;28;20299;-77
2020/12/20 00:45:09;;;;;;;11.83;7.47;;;;;;;;;;5011950;28;20284;-77
2020/12/20 00:47:36;;;;;;;12.37;7.83;;;;;;;;;;5011930;28;20265;-77
2020/12/20 00:50:03;;;;;;;11.10;7.73;;;;;;;;;;5013321;28;20380;-77
2020/12/20 00:52:29;;;;;;;12.20;7.47;;;;;;;;;;5011994;28;20285;-77
2020/12/20 00:54:55;;;;;;;12.30;7.43;;;;;;;;;;5011578;28;20360;-77
2020/12/20 00:57:21;;;;;;;11.37;7.27;;;;;;;;;;5011464;28;20272;-77
2020/12/20 00:59:47;;;;;;;15.43;8.13;;;;;;;;;;5012086;28;20276;-78
2020/12/20 01:02:13;;;;;;;13.20;8.63;;;;;;;;;;5011344;28;20289;-77
2020/12/20 01:04:39;;;;;;;12.90;8.03;;;;;;;;;;5011739;28;20327;-77
2020/12/20 01:07:05;;;;;;;14.10;8.87;;;;;;;;;;5011199;28;20834;-77
2020/12/20 01:09:32;;;;;;;15.17;8.80;;;;;;;;;;5009940;28;20288;-78
2020/12/20 01:11:59;;;;;;;13.47;7.80;;;;;;;;;;5011039;28;20790;-77
2020/12/20 01:14:25;;;;;;;13.77;9.00;;;;;;;;;;5012994;28;20264;-77
2020/12/20 01:16:52;;;;;;;14.60;9.30;;;;;;;;;;5009743;28;20351;-76
2020/12/20 01:19:18;;;;;;;15.63;8.93;;;;;;;;;;5011385;28;20257;-77
2020/12/20 01:21:44;;;;;;;12.30;7.60;;;;;;;;;;5012239;28;20372;-77
2020/12/20 01:24:10;;;;;;;16.03;8.43;;;;;;;;;;5014386;28;20821;-77
2020/12/20 01:26:37;;;;;;;18.30;9.67;;;;;;;;;;4994615;28;20347;-77
2020/12/20 01:29:03;;;;;;;15.10;8.80;;;;;;;;;;5011741;28;20601;-77
2020/12/20 01:31:29;;;;;;;14.03;8.20;;;;;;;;;;5010559;28;20334;-77
2020/12/20 01:33:56;;;;;;;13.63;8.53;;;;;;;;;;5010545;28;20318;-76
2020/12/20 01:36:22;;;;;;;12.93;8.20;;;;;;;;;;5010336;28;20300;-77
2020/12/20 01:38:48;;;;;;;14.30;8.90;;;;;;;;;;5010569;28;20257;-77
2020/12/20 01:41:14;;;;;;;13.97;8.70;;;;;;;;;;5006445;28;20284;-76
2020/12/20 01:43:47;;;;;;;13.37;7.80;;;;;;;;;;5002603;28;20271;-76
2020/12/20 01:46:18;;;;;;;14.93;8.38;;;;;;;;;;5012420;28;20273;-77
2020/12/20 01:48:44;;;;;;;14.70;8.97;;;;;;;;;;5009750;28;20112;-76
2020/12/20 01:51:10;;;;;;;13.77;8.67;;;;;;;;;;5010101;28;20726;-77
2020/12/20 01:53:36;;;;;;;12.13;7.83;;;;;;;;;;5010238;28;20787;-77
2020/12/20 01:56:03;;;;;;;12.37;8.27;;;;;;;;;;5010398;28;20257;-78
2020/12/20 01:58:31;;;;;;;14.30;8.57;;;;;;;;;;5005914;28;20266;-78
2020/12/20 02:00:57;;;;;;;13.53;8.40;;;;;;;;;;4989488;28;20373;-77
2020/12/20 02:03:24;;;;;;;13.60;8.80;;;;;;;;;;4990498;28;20272;-77
2020/12/20 02:05:51;;;;;;;14.83;8.80;;;;;;;;;;5008683;28;20688;-77
2020/12/20 02:08:17;;;;;;;14.70;8.57;;;;;;;;;;5009732;28;20740;-77
2020/12/20 02:10:43;;;;;;;17.07;7.73;;;;;;;;;;5010302;28;20292;-77
2020/12/20 02:13:09;;;;;;;12.63;8.07;;;;;;;;;;5010562;28;20284;-77
2020/12/20 02:15:36;;;;;;;13.43;8.53;;;;;;;;;;5011842;28;20257;-78
2020/12/20 02:18:04;;;;;;;13.43;8.30;;;;;;;;;;5013343;28;20260;-78
2020/12/20 02:20:30;;;;;;;15.40;8.27;;;;;;;;;;5030735;28;20337;-77
2020/12/20 02:22:57;;;;;;;14.00;8.97;;;;;;;;;;5017726;28;20768;-77
2020/12/20 02:25:24;;;;;;;12.97;8.67;;;;;;;;;;5010173;28;20268;-77
2020/12/20 02:27:51;;;;;;;12.97;7.93;;;;;;;;;;5010885;28;20284;-77
2020/12/20 02:30:17;;;;;;;13.30;7.50;;;;;;;;;;5012715;28;20360;-77
2020/12/20 02:32:43;;;;;;;13.10;7.80;;;;;;;;;;5013538;28;20273;-78
2020/12/20 02:35:09;;;;;;;13.70;8.73;;;;;;;;;;5013932;28;20351;-77
2020/12/20 02:37:35;;;;;;;13.87;8.67;;;;;;;;;;5014571;28;20264;-77
2020/12/20 02:40:01;;;;;;;13.20;7.97;;;;;;;;;;5013811;28;20364;-77
2020/12/20 02:42:28;;;;;;;13.10;7.97;;;;;;;;;;5014643;28;20870;-77
2020/12/20 02:44:56;;;;;;;12.87;7.83;;;;;;;;;;5014455;28;20854;-77
2020/12/20 02:47:23;;;;;;;10.63;6.90;;;;;;;;;;5014842;28;20287;-77
2020/12/20 02:49:49;;;;;;;11.50;7.20;;;;;;;;;;5010489;28;20352;-78
2020/12/20 02:52:15;;;;;;;12.40;7.50;;;;;;;;;;4995838;28;20628;-78
2020/12/20 02:54:41;;;;;;;11.20;7.67;;;;;;;;;;5010646;28;20703;-77
2020/12/20 02:57:07;;;;;;;13.40;8.13;;;;;;;;;;5014279;28;20304;-78
2020/12/20 02:59:33;;;;;;;12.30;7.53;;;;;;;;;;5013360;28;21184;-77
2020/12/20 03:02:00;;;;;;;11.93;7.40;;;;;;;;;;5014481;28;20311;-76
2020/12/20 03:04:26;;;;;;;12.20;7.70;;;;;;;;;;5013364;28;20276;-77
2020/12/20 03:06:52;;;;;;;9.43;5.63;;;;;;;;;;5012820;28;20268;-77
2020/12/20 03:09:18;;;;;;;13.40;8.67;;;;;;;;;;5013285;28;20949;-78
2020/12/20 03:11:45;;;;;;;10.07;6.90;;;;;;;;;;5009284;28;20313;-77
2020/12/20 03:14:11;;;;;;;12.13;8.13;;;;;;;;;;5017471;28;20253;-79
2020/12/20 03:16:37;;;;;;;12.30;8.17;;;;;;;;;;5012429;28;20771;-77
2020/12/20 03:19:03;;;;;;;11.73;7.20;;;;;;;;;;5013570;28;20276;-77
2020/12/20 03:21:29;;;;;;;12.67;5.93;;;;;;;;;;5011985;28;20299;-77
2020/12/20 03:24:00;;;;;;;13.13;6.60;;;;;;;;;;5010660;28;20295;-76
2020/12/20 03:26:26;;;;;;;11.13;7.07;;;;;;;;;;5020716;28;20695;-77
2020/12/20 03:28:53;;;;;;;9.63;6.37;;;;;;;;;;5014529;28;20388;-77
2020/12/20 03:31:19;;;;;;;10.60;6.43;;;;;;;;;;5018382;28;20289;-77
2020/12/20 03:33:45;;;;;;;10.53;6.67;;;;;;;;;;5013949;28;20276;-78
2020/12/20 03:36:11;;;;;;;14.40;8.10;;;;;;;;;;5013709;28;20253;-77
2020/12/20 03:38:37;;;;;;;13.37;7.90;;;;;;;;;;4998881;28;20305;-77
2020/12/20 03:41:03;;;;;;;11.13;7.43;;;;;;;;;;4995004;28;20274;-77
2020/12/20 03:43:29;;;;;;;11.53;7.37;;;;;;;;;;5002038;28;20580;-76
2020/12/20 03:45:55;;;;;;;12.57;8.00;;;;;;;;;;5015512;28;20281;-77
2020/12/20 03:48:21;;;;;;;10.87;6.93;;;;;;;;;;5010525;28;20281;-77
2020/12/20 03:50:47;;;;;;;12.07;7.47;;;;;;;;;;5011932;28;20309;-77
2020/12/20 03:53:13;;;;;;;13.77;7.33;;;;;;;;;;5011976;28;20284;-77
2020/12/20 03:55:40;;;;;;;11.67;7.03;;;;;;;;;;5011960;28;20339;-77
2020/12/20 03:58:06;;;;;;;12.57;8.27;;;;;;;;;;5008321;28;20408;-77
2020/12/20 04:00:33;;;;;;;13.53;8.73;;;;;;;;;;4993449;28;20270;-76
2020/12/20 04:02:59;;;;;;;10.87;7.77;;;;;;;;;;5011954;28;20280;-78
2020/12/20 04:05:25;;;;;;;12.67;8.00;;;;;;;;;;5017706;28;20326;-76
2020/12/20 04:07:51;;;;;;;12.90;7.57;;;;;;;;;;5013730;28;20276;-77
2020/12/20 04:10:17;;;;;;;13.80;8.13;;;;;;;;;;5010442;28;20355;-77
2020/12/20 04:12:43;;;;;;;15.63;9.13;;;;;;;;;;5007428;28;20784;-77
2020/12/20 04:15:09;;;;;;;12.20;7.57;;;;;;;;;;5013021;28;20292;-77
2020/12/20 04:17:35;;;;;;;11.23;7.60;;;;;;;;;;5008076;28;20292;-77
2020/12/20 04:20:01;;;;;;;13.80;6.93;;;;;;;;;;4993762;28;20304;-77
2020/12/20 04:22:27;;;;;;;13.80;8.33;;;;;;;;;;5003851;28;20312;-77
2020/12/20 04:24:53;;;;;;;14.13;9.33;;;;;;;;;;5014483;28;20260;-78
2020/12/20 04:27:19;;;;;;;13.77;8.47;;;;;;;;;;5013621;28;20265;-77
2020/12/20 04:29:45;;;;;;;12.97;8.03;;;;;;;;;;5011370;28;20658;-77
2020/12/20 04:32:12;;;;;;;15.53;8.30;;;;;;;;;;5011356;28;20284;-77
2020/12/20 04:34:38;;;;;;;12.00;7.93;;;;;;;;;;5010430;28;20333;-77
2020/12/20 04:37:04;;;;;;;13.70;7.57;;;;;;;;;;5011788;28;20343;-77
2020/12/20 04:39:30;;;;;;;12.77;7.83;;;;;;;;;;5011442;28;20798;-77
2020/12/20 04:41:56;;;;;;;13.37;7.97;;;;;;;;;;5012323;28;20435;-77
2020/12/20 04:44:22;;;;;;;15.10;8.53;;;;;;;;;;5012752;28;20360;-77
2020/12/20 04:46:48;;;;;;;13.70;7.63;;;;;;;;;;5011198;28;20767;-77
2020/12/20 04:49:15;;;;;;;11.80;7.67;;;;;;;;;;5012148;28;20834;-76
2020/12/20 04:51:41;;;;;;;15.50;8.53;;;;;;;;;;5012278;28;20797;-77
2020/12/20 04:54:09;;;;;;;13.57;8.10;;;;;;;;;;5013183;28;20297;-77
2020/12/20 04:56:37;;;;;;;12.13;7.63;;;;;;;;;;5009772;28;20635;-77
2020/12/20 04:59:05;;;;;;;12.53;7.83;;;;;;;;;;4991987;28;20357;-77
2020/12/20 05:01:31;;;;;;;14.20;7.80;;;;;;;;;;4991253;28;20277;-77
2020/12/20 05:03:57;;;;;;;11.83;7.57;;;;;;;;;;4995272;28;20695;-76
2020/12/20 05:06:25;;;;;;;13.47;7.37;;;;;;;;;;4993806;28;20269;-77
2020/12/20 05:08:58;;;;;;;14.07;8.23;;;;;;;;;;4998929;28;20300;-77
2020/12/20 05:11:34;;;;;;;13.30;7.47;;;;;;;;;;5016217;28;20388;-77
2020/12/20 05:14:01;;;;;;;12.40;7.67;;;;;;;;;;5019392;28;20098;-77
2020/12/20 05:16:30;;;;;;;10.87;6.90;;;;;;;;;;5028064;28;20267;-75
2020/12/20 05:18:57;;;;;;;10.70;6.73;;;;;;;;;;5009419;28;20672;-77
2020/12/20 05:21:30;;;;;;;13.00;8.73;;;;;;;;;;5004416;28;20305;-77
2020/12/20 05:24:22;;;;;;;13.15;8.02;;;;;;;;;;4999153;28;20267;-77
2020/12/20 05:26:48;;;;;;;12.13;8.17;;;;;;;;;;5007134;28;20389;-77
2020/12/20 05:29:25;;;;;;;12.63;7.87;;;;;;;;;;5007543;28;20280;-76
2020/12/20 05:31:51;;;;;;;12.00;8.60;;;;;;;;;;5004703;28;20273;-77
2020/12/20 05:34:20;;;;;;;11.53;8.07;;;;;;;;;;4990422;28;20325;-77
2020/12/20 05:36:47;;;;;;;10.43;6.30;;;;;;;;;;5006739;28;20261;-77
2020/12/20 05:39:20;;;;;;;12.53;7.43;;;;;;;;;;5003692;28;20258;-77
2020/12/20 05:41:46;;;;;;;12.73;8.65;;;;;;;;;;5021914;28;20349;-77
2020/12/20 05:44:17;;;;;;;12.13;6.83;;;;;;;;;;5007578;28;20184;-78
2020/12/20 05:46:44;;;;;;;12.27;7.33;;;;;;;;;;5007241;28;20267;-77
2020/12/20 05:49:14;;;;;;;13.67;8.13;;;;;;;;;;5004808;28;20257;-77
2020/12/20 05:52:00;;;;;;;11.10;6.67;;;;;;;;;;5018361;28;20285;-77
2020/12/20 05:54:30;;;;;;;10.90;6.77;;;;;;;;;;5007946;28;20365;-76
2020/12/20 05:57:25;;;;;;;14.23;7.60;;;;;;;;;;5011432;28;20280;-76
2020/12/20 05:59:52;;;;;;;11.70;7.13;;;;;;;;;;5010091;28;20264;-77
2020/12/20 06:02:19;;;;;;;12.40;7.33;;;;;;;;;;5026766;28;20351;-77
2020/12/20 06:04:45;;;;;;;12.53;7.90;;;;;;;;;;5026615;28;20265;-77
2020/12/20 06:07:13;;;;;;;13.83;8.10;;;;;;;;;;5017878;28;20280;-77
2020/12/20 06:09:49;;;;;;;12.03;7.37;;;;;;;;;;5016738;28;20276;-77
2020/12/20 06:12:19;;;;;;;12.10;7.77;;;;;;;;;;5014785;28;20260;-77
2020/12/20 06:14:46;;;;;;;12.67;8.17;;;;;;;;;;5007027;28;20281;-77
2020/12/20 06:17:17;;;;;;;12.27;8.67;;;;;;;;;;5007813;28;20675;-77
2020/12/20 06:19:48;;;;;;;13.33;8.10;;;;;;;;;;5008427;28;20281;-77
2020/12/20 06:22:19;;;;;;;12.43;7.90;;;;;;;;;;5008767;28;21010;-77
2020/12/20 06:24:49;;;;;;;10.80;7.33;;;;;;;;;;5008665;28;20272;-77
2020/12/20 06:27:19;;;;;;;10.97;7.00;;;;;;;;;;5010152;28;20273;-77
2020/12/20 06:29:53;;;;;;;11.07;7.20;;;;;;;;;;5021131;28;20281;-77
2020/12/20 06:32:33;;;;;;;11.07;7.37;;;;;;;;;;5002347;28;20269;-77
2020/12/20 06:35:00;;;;;;;13.27;7.70;;;;;;;;;;5026153;28;20269;-77
2020/12/20 06:37:26;;;;;;;11.03;7.33;;;;;;;;;;5006377;28;20323;-77
2020/12/20 06:39:52;;;;;;;12.67;7.63;;;;;;;;;;5006574;28;20340;-77
2020/12/20 06:42:39;;;;;;;12.73;8.13;;;;;;;;;;5007855;28;20327;-77
2020/12/20 06:45:12;;;;;;;12.97;7.43;;;;;;;;;;5008221;28;20358;-77
2020/12/20 06:47:42;;;;;;;12.27;6.95;;;;;;;;;;5006901;28;20306;-77
2020/12/20 06:50:08;;;;;;;12.53;7.90;;;;;;;;;;5006892;28;20037;-77
2020/12/20 06:52:43;;;;;;;12.60;8.23;;;;;;;;;;4997745;28;20324;-77
2020/12/20 06:55:16;;;;;;;13.63;8.53;;;;;;;;;;5025183;28;20353;-78
2020/12/20 06:58:01;;;;;;;14.02;8.43;;;;;;;;;;5028954;28;20426;-78
2020/12/20 07:00:44;;;;;;;13.40;8.67;;;;;;;;;;4985549;28;20038;-77
2020/12/20 07:03:33;;;;;;;14.03;8.03;;;;;;;;;;4988785;28;20253;-78
2020/12/20 07:06:09;;;;;;;12.10;7.37;;;;;;;;;;5000703;28;20273;-77
2020/12/20 07:08:35;;;;;;;11.03;7.27;;;;;;;;;;5008232;28;20301;-76
2020/12/20 07:11:06;;;;;;;14.63;8.90;;;;;;;;;;5006280;28;20281;-77
2020/12/20 07:13:32;;;;;;;13.77;8.40;;;;;;;;;;5006958;28;20269;-77
2020/12/20 07:16:08;;;;;;;12.33;7.83;;;;;;;;;;5010620;28;20265;-77
2020/12/20 07:18:43;;;;;;;12.70;7.67;;;;;;;;;;5012715;28;20265;-77
2020/12/20 07:21:10;;;;;;;11.77;7.13;;;;;;;;;;5012263;28;20951;-77
2020/12/20 07:23:40;;;;;;;11.57;7.70;;;;;;;;;;5012428;28;20794;-78
2020/12/20 07:26:06;;;;;;;12.67;7.63;;;;;;;;;;5012752;28;20272;-77
2020/12/20 07:28:32;;;;;;;14.37;8.80;;;;;;;;;;5014493;28;20327;-77
2020/12/20 07:30:58;;;;;;;12.40;7.63;;;;;;;;;;5013101;28;20280;-77
2020/12/20 07:33:24;;;;;;;13.33;7.83;;;;;;;;;;5013392;28;20914;-77
2020/12/20 07:35:50;;;;;;;12.40;8.27;;;;;;;;;;5013956;28;20338;-77
2020/12/20 07:38:17;;;;;;;13.90;8.50;;;;;;;;;;5003602;28;20309;-77
2020/12/20 07:40:43;;;;;;;15.77;8.47;;;;;;;;;;5005388;28;20273;-77
2020/12/20 07:43:09;;;;;;;13.73;8.47;;;;;;;;;;4999726;28;20272;-77
2020/12/20 07:45:37;;;;;;;14.47;8.97;;;;;;;;;;5010148;28;20273;-78
2020/12/20 07:48:04;;;;;;;13.93;9.20;;;;;;;;;;5010506;28;20268;-78
2020/12/20 07:50:30;;;;;;;16.17;7.90;;;;;;;;;;4997918;28;20289;-78
2020/12/20 07:52:58;;;;;;;15.90;8.13;;;;;;;;;;5000052;28;20806;-79
2020/12/20 07:55:24;;;;;;;11.17;6.70;;;;;;;;;;5011633;28;20687;-77
2020/12/20 07:57:53;;;;;;;14.70;8.47;;;;;;;;;;5005618;28;20819;-78
2020/12/20 08:00:19;;;;;;;14.30;8.80;;;;;;;;;;5003525;28;20756;-77
2020/12/20 08:02:45;;;;;;;14.00;8.67;;;;;;;;;;5020084;28;20279;-78
2020/12/20 08:05:14;;;;;;;12.13;8.17;;;;;;;;;;5028734;28;20268;-78
2020/12/20 08:07:40;;;;;;;13.83;8.73;;;;;;;;;;5012298;28;20758;-77
2020/12/20 08:10:07;;;;;;;13.03;8.13;;;;;;;;;;5007514;28;20277;-78
2020/12/20 08:12:35;;;;;;;12.93;8.40;;;;;;;;;;5009123;28;20280;-76
2020/12/20 08:15:05;;;;;;;13.67;8.30;;;;;;;;;;5009630;28;20931;-76
2020/12/20 08:17:31;;;;;;;14.10;7.97;;;;;;;;;;5008522;28;20344;-77
2020/12/20 08:19:58;;;;;;;14.93;6.77;;;;;;;;;;5024251;28;20279;-77
2020/12/20 08:22:26;;;;;;;12.83;7.43;;;;;;;;;;5010047;28;20406;-78
2020/12/20 08:24:53;;;;;;;13.83;8.40;;;;;;;;;;5009326;28;20811;-78
2020/12/20 08:27:24;;;;;;;14.70;8.10;;;;;;;;;;5009366;28;20775;-77
2020/12/20 08:29:51;;;;;;;14.13;9.03;;;;;;;;;;5011335;28;20285;-78
2020/12/20 08:32:18;;;;;;;11.10;7.77;;;;;;;;;;4997033;28;20692;-77
2020/12/20 08:34:45;;;;;;;11.30;7.53;;;;;;;;;;4998538;28;20261;-79
2020/12/20 08:37:12;;;;;;;11.13;7.67;;;;;;;;;;5010257;28;20273;-78
2020/12/20 08:39:38;;;;;;;11.97;7.53;;;;;;;;;;5013677;28;20253;-78
2020/12/20 08:42:05;;;;;;;11.30;8.10;;;;;;;;;;5020424;28;20261;-78
2020/12/20 08:44:32;;;;;;;12.60;8.57;;;;;;;;;;5011371;28;20266;-78
2020/12/20 08:47:05;;;;;;;13.60;8.10;;;;;;;;;;4995051;28;20795;-78
2020/12/20 08:49:31;;;;;;;12.68;7.70;;;;;;;;;;5002526;28;20273;-77
2020/12/20 08:52:05;;;;;;;12.50;8.90;;;;;;;;;;5008894;28;20632;-78
2020/12/20 08:54:31;;;;;;;13.03;8.67;;;;;;;;;;5019195;28;20615;-78
2020/12/20 08:57:03;;;;;;;12.03;7.77;;;;;;;;;;4999820;28;20249;-78
2020/12/20 08:59:34;;;;;;;13.73;8.37;;;;;;;;;;5008575;28;20807;-78
2020/12/20 09:02:03;;;;;;;13.17;8.57;;;;;;;;;;4997860;28;20360;-78
2020/12/20 09:04:30;;;;;;;12.73;7.97;;;;;;;;;;5021387;28;20692;-77
2020/12/20 09:06:58;;;;;;;13.10;8.00;;;;;;;;;;5020756;28;20253;-78
2020/12/20 09:09:25;;;;;;;13.37;7.80;;;;;;;;;;5010845;28;20727;-77
2020/12/20 09:11:51;;;;;;;13.60;8.40;;;;;;;;;;5011101;28;20289;-78
2020/12/20 09:14:17;;;;;;;13.77;8.77;;;;;;;;;;5012385;28;20907;-78
2020/12/20 09:16:44;;;;;;;12.07;7.80;;;;;;;;;;5010802;28;20272;-78
2020/12/20 09:19:14;;;;;;;18.53;9.10;;;;;;;;;;5007430;28;20489;-78
2020/12/20 09:21:40;;;;;;;10.53;6.90;;;;;;;;;;5010858;28;20414;-78
2020/12/20 09:24:07;;;;;;;12.77;6.90;;;;;;;;;;5016587;28;20032;-78
2020/12/20 09:26:34;;;;;;;9.60;6.30;;;;;;;;;;5031000;28;20037;-78
2020/12/20 09:29:06;;;;;;;9.63;6.50;;;;;;;;;;5030894;28;20421;-76
2020/12/20 09:31:32;;;;;;;7.70;4.93;;;;;;;;;;5019776;28;20481;-77
2020/12/20 09:34:01;;;;;;;10.53;6.93;;;;;;;;;;5010889;28;20323;-77
2020/12/20 09:36:28;;;;;;;9.07;6.23;;;;;;;;;;5004605;28;20065;-78
2020/12/20 09:38:55;;;;;;;10.73;7.13;;;;;;;;;;5029747;28;20113;-78
2020/12/20 09:41:23;;;;;;;12.77;7.00;;;;;;;;;;5009944;28;20026;-77
2020/12/20 09:43:49;;;;;;;11.43;7.17;;;;;;;;;;5008704;28;20573;-78
2020/12/20 09:46:23;;;;;;;11.93;6.63;;;;;;;;;;5010308;28;20462;-78
2020/12/20 09:48:49;;;;;;;;;;;;;;;;;;5011788;28;20037;-78
2020/12/20 09:51:16;;;;;;;10.87;7.23;;;;;;;;;;5010615;28;19910;-79
2020/12/20 09:53:42;;;;;;;12.10;7.03;;;;;;;;;;5010897;28;20065;-78
2020/12/20 09:56:08;;;;;;;10.83;7.77;;;;;;;;;;5026363;28;20026;-78
2020/12/20 09:58:34;;;;;;;10.50;7.47;;;;;;;;;;5010255;28;20060;-79
2020/12/20 10:01:01;;;;;;;11.87;7.20;;;;;;;;;;5009847;28;20036;-77
2020/12/20 10:03:30;;;;;;;9.87;7.07;;;;;;;;;;5008493;28;20030;-78
2020/12/20 10:05:59;;;;;;;10.40;7.07;;;;;;;;;;5007415;28;20401;-78
2020/12/20 10:08:26;;;;;;;11.07;7.13;;;;;;;;;;5008678;28;20034;-77
2020/12/20 10:10:56;;;;;;;10.70;7.10;;;;;;;;;;5008733;28;20477;-78
2020/12/20 10:13:22;;;;;;;10.53;7.33;;;;;;;;;;5010145;28;20501;-78
2020/12/20 10:15:49;;;;;;;11.87;8.10;;;;;;;;;;5026952;28;20259;-77
2020/12/20 10:18:15;;;;;;;10.63;7.20;;;;;;;;;;5026924;28;20029;-77
2020/12/20 10:20:42;;;;;;;9.63;6.87;;;;;;;;;;5012979;28;20050;-78
2020/12/20 10:23:08;;;;;;;12.40;8.37;;;;;;;;;;5007966;28;20494;-78
2020/12/20 10:25:34;;;;;;;15.77;9.83;;;;;;;;;;5016552;28;20038;-79
2020/12/20 10:28:00;;;;;;;11.03;7.47;;;;;;;;;;5017834;28;20034;-78
2020/12/20 10:30:27;;;;;;;12.13;8.07;;;;;;;;;;5027284;28;20025;-78
2020/12/20 10:32:54;;;;;;;9.83;7.47;;;;;;;;;;5014076;28;20035;-78
2020/12/20 10:35:27;;;;;;;13.27;8.37;;;;;;;;;;5016776;28;20053;-78
2020/12/20 10:37:58;;;;;;;9.97;7.23;;;;;;;;;;5012952;28;20044;-78
2020/12/20 10:40:26;;;;;;;12.30;8.73;;;;;;;;;;5017129;28;20280;-78
2020/12/20 10:42:53;;;;;;;12.07;8.93;;;;;;;;;;5012093;28;20512;-78
2020/12/20 10:45:20;;;;;;;12.40;8.53;;;;;;;;;;5007666;28;20100;-76
2020/12/20 10:47:46;;;;;;;10.30;7.43;;;;;;;;;;5027869;28;20037;-78
2020/12/20 10:50:17;;;;;;;10.63;8.17;;;;;;;;;;5000029;28;20041;-78
2020/12/20 10:52:43;;;;;;;12.23;8.30;;;;;;;;;;5018477;28;20053;-78
2020/12/20 10:55:09;;;;;;;12.20;7.93;;;;;;;;;;5015135;28;20065;-78
2020/12/20 10:57:38;;;;;;;10.53;7.83;;;;;;;;;;5015438;28;20563;-79
2020/12/20 11:00:05;;;;;;;13.50;8.30;;;;;;;;;;5015681;28;20030;-78
2020/12/20 11:02:31;;;;;;;10.77;7.80;;;;;;;;;;5026496;28;20065;-80
2020/12/20 11:04:57;;;;;;;12.00;8.20;;;;;;;;;;5018935;28;20645;-78
2020/12/20 11:07:23;;;;;;;13.93;8.70;;;;;;;;;;5013966;28;20036;-78
2020/12/20 11:09:49;;;;;;;11.43;8.80;;;;;;;;;;5014167;28;20038;-79
2020/12/20 11:12:17;;;;;;;11.70;8.30;;;;;;;;;;5014128;28;20093;-78
2020/12/20 11:14:47;;;;;;;11.13;7.83;;;;;;;;;;5018228;28;20033;-77
2020/12/20 11:17:13;;;;;;;12.37;9.17;;;;;;;;;;5021091;28;20419;-78
2020/12/20 11:19:41;;;;;;;12.20;8.70;;;;;;;;;;5008874;28;20022;-78
2020/12/20 11:22:11;;;;;;;13.33;9.67;;;;;;;;;;5013212;28;20689;-78
2020/12/20 11:24:37;;;;;;;12.33;8.57;;;;;;;;;;5021157;28;20072;-78
2020/12/20 11:27:03;;;;;;;14.60;9.43;;;;;;;;;;5009711;28;20026;-80
2020/12/20 11:29:30;;;;;;;13.37;8.90;;;;;;;;;;5016405;28;20362;-81
2020/12/20 11:31:56;;;;;;;12.97;8.27;;;;;;;;;;5020103;28;20555;-80
2020/12/20 11:34:25;;;;;;;13.67;9.17;;;;;;;;;;5018413;28;20042;-81
2020/12/20 11:36:54;;;;;;;15.00;9.80;;;;;;;;;;5015482;28;20120;-80
2020/12/20 11:39:22;;;;;;;15.43;9.93;;;;;;;;;;5018384;28;20030;-78
2020/12/20 11:41:49;;;;;;;15.07;9.87;;;;;;;;;;5019803;28;20288;-78
2020/12/20 11:44:16;;;;;;;16.13;10.63;;;;;;;;;;5018437;28;20088;-78
2020/12/20 11:46:42;;;;;;;13.97;9.23;;;;;;;;;;5015530;28;20034;-77
2020/12/20 11:49:08;;;;;;;16.03;9.80;;;;;;;;;;5021691;28;20493;-78
2020/12/20 11:51:34;;;;;;;14.90;9.97;;;;;;;;;;5021193;28;20029;-78
2020/12/20 11:54:00;;;;;;;17.77;10.83;;;;;;;;;;5008740;28;20027;-77
2020/12/20 11:56:27;;;;;;;15.23;10.03;;;;;;;;;;5009773;28;20121;-77
2020/12/20 11:58:53;;;;;;;17.00;11.27;;;;;;;;;;5030100;28;20033;-78
2020/12/20 12:01:30;;;;;;;15.23;10.80;;;;;;;;;;5017242;28;20029;-80
2020/12/20 12:03:58;;;;;;;17.83;11.73;;;;;;;;;;5016915;28;20036;-80
2020/12/20 12:06:25;;;;;;;20.30;12.33;;;;;;;;;;5018753;28;20044;-80
2020/12/20 12:08:51;;;;;;;16.77;11.47;;;;;;;;;;5029310;28;20063;-78
2020/12/20 12:11:20;;;;;;;17.07;11.13;;;;;;;;;;5009842;28;20044;-78
2020/12/20 12:13:46;;;;;;;15.07;10.33;;;;;;;;;;5010388;28;20041;-77
2020/12/20 12:16:13;;;;;;;17.90;11.07;;;;;;;;;;5017646;28;20046;-77
2020/12/20 12:18:39;;;;;;;15.87;10.63;;;;;;;;;;5018524;28;20581;-78
2020/12/20 12:21:05;;;;;;;16.57;10.83;;;;;;;;;;5011550;28;20029;-81
2020/12/20 12:23:31;;;;;;;14.70;10.83;;;;;;;;;;5010411;28;20037;-79
2020/12/20 12:25:57;;;;;;;16.07;10.37;;;;;;;;;;4995107;28;20094;-78
2020/12/20 12:28:24;;;;;;;14.93;10.97;;;;;;;;;;5011849;28;20048;-79
2020/12/20 12:30:50;;;;;;;13.33;9.30;;;;;;;;;;5011847;28;20038;-79
2020/12/20 12:33:16;;;;;;;14.37;10.00;;;;;;;;;;5026789;28;20393;-78
2020/12/20 12:35:42;;;;;;;14.43;10.63;;;;;;;;;;5014494;28;20058;-78
2020/12/20 12:38:11;;;;;;;13.17;10.40;;;;;;;;;;5003093;28;20036;-79
2020/12/20 12:40:37;;;;;;;14.90;10.70;;;;;;;;;;5017080;28;20080;-79
2020/12/20 12:43:03;;;;;;;14.10;9.00;;;;;;;;;;5012038;28;20040;-79
2020/12/20 12:45:30;;;;;;;14.00;10.33;;;;;;;;;;5011531;28;20033;-79
2020/12/20 12:47:56;;;;;;;13.40;9.83;;;;;;;;;;5011259;28;20026;-79
2020/12/20 12:50:22;;;;;;;14.77;10.70;;;;;;;;;;5011633;28;20033;-79
2020/12/20 12:52:48;;;;;;;15.77;10.70;;;;;;;;;;5012001;28;20096;-78
2020/12/20 12:55:14;;;;;;;14.53;10.20;;;;;;;;;;5010098;28;20454;-78
2020/12/20 12:57:40;;;;;;;17.27;11.93;;;;;;;;;;5016111;28;20036;-77
2020/12/20 13:00:06;;;;;;;17.43;10.73;;;;;;;;;;5023478;28;20028;-80
2020/12/20 13:02:34;;;;;;;14.43;9.87;;;;;;;;;;5015444;28;20445;-77
2020/12/20 13:05:01;;;;;;;16.33;11.70;;;;;;;;;;5012787;28;20064;-78
2020/12/20 13:07:28;;;;;;;16.10;10.90;;;;;;;;;;5010490;28;20027;-77
2020/12/20 13:09:54;;;;;;;14.47;10.57;;;;;;;;;;5010566;28;20048;-78
2020/12/20 13:12:21;;;;;;;16.90;11.13;;;;;;;;;;5020559;28;20029;-78
2020/12/20 13:14:47;;;;;;;16.53;11.57;;;;;;;;;;5027872;28;20035;-77
2020/12/20 13:17:13;;;;;;;16.87;11.27;;;;;;;;;;5010674;28;20037;-78
2020/12/20 13:19:40;;;;;;;16.73;11.47;;;;;;;;;;5019454;28;20022;-77
2020/12/20 13:22:06;;;;;;;16.77;11.63;;;;;;;;;;5010798;28;20026;-77
2020/12/20 13:24:32;;;;;;;16.87;11.30;;;;;;;;;;5009223;28;20022;-77
2020/12/20 13:26:58;;;;;;;16.27;11.27;;;;;;;;;;5012702;28;20053;-78
2020/12/20 13:29:24;;;;;;;16.63;11.80;;;;;;;;;;5016987;28;20026;-77
2020/12/20 13:31:50;;;;;;;18.03;11.63;;;;;;;;;;5015087;28;20096;-78
2020/12/20 13:34:16;;;;;;;17.60;11.43;;;;;;;;;;5011569;28;20026;-78
2020/12/20 13:36:43;;;;;;;16.63;11.37;;;;;;;;;;5012917;28;20026;-77
2020/12/20 13:39:09;;;;;;;15.50;10.53;;;;;;;;;;5013147;28;20030;-77
2020/12/20 13:41:36;;;;;;;16.47;10.90;;;;;;;;;;5016154;28;20034;-77
2020/12/20 13:44:02;;;;;;;18.93;12.83;;;;;;;;;;5026873;28;20038;-77
2020/12/20 13:46:30;;;;;;;15.67;10.30;;;;;;;;;;5030090;28;20093;-78
2020/12/20 13:48:56;;;;;;;16.07;10.90;;;;;;;;;;5014444;28;20045;-77
2020/12/20 13:51:22;;;;;;;16.00;10.03;;;;;;;;;;5013298;28;20041;-78
2020/12/20 13:53:48;;;;;;;14.00;10.30;;;;;;;;;;5009706;28;20033;-78
2020/12/20 13:56:14;;;;;;;16.00;10.87;;;;;;;;;;5026632;28;20033;-78
2020/12/20 13:58:42;;;;;;;16.80;12.00;;;;;;;;;;4995038;28;20033;-78
2020/12/20 14:01:13;;;;;;;16.97;12.03;;;;;;;;;;4994997;28;20095;-78
2020/12/20 14:03:39;;;;;;;18.17;11.40;;;;;;;;;;5007947;28;20037;-78
2020/12/20 14:06:06;;;;;;;16.63;11.33;;;;;;;;;;5001518;28;20426;-78
2020/12/20 14:08:32;;;;;;;13.20;9.20;;;;;;;;;;5014972;28;20034;-78
2020/12/20 14:10:58;;;;;;;13.03;9.10;;;;;;;;;;5008902;28;20472;-78
2020/12/20 14:13:24;;;;;;;13.00;9.20;;;;;;;;;;5009965;28;20488;-78
2020/12/20 14:15:51;;;;;;;15.00;10.10;;;;;;;;;;5004394;28;20030;-79
2020/12/20 14:18:18;;;;;;;12.30;8.40;;;;;;;;;;4993118;28;20030;-79
2020/12/20 14:20:46;;;;;;;14.87;10.37;;;;;;;;;;5029382;28;20030;-79
2020/12/20 14:23:13;;;;;;;16.20;10.13;;;;;;;;;;5003441;28;20022;-79
2020/12/20 14:25:39;;;;;;;13.53;10.27;;;;;;;;;;5013912;28;20030;-78
2020/12/20 14:28:07;;;;;;;18.80;11.87;;;;;;;;;;5015326;28;20029;-78
2020/12/20 14:30:34;;;;;;;16.13;9.83;;;;;;;;;;5015040;28;20041;-78